Volcan De Tamasite — ECFE — position and weather

sailwx.info

Track history (hours):
 
Tides and Currents Weather Stations Pressure Air Temp Water Temp Dewpoint Dewpoint Depression Visibility Wind Speed Wind Dir Waves Ship Positions

Volcan De Tamasite

Last reported at 2016-Aug-23 06:32 UTC. Time now 2016-Aug-25 09:43 UTC.
Position N 36°26' W 002°35'.

Length 142 m; draft 5.3 m.

Type: Passenger vessel. MMSI: 224093000.

Date/timePositionNaut miles runAvg speedWind from/ knotsBaromVisibWave heightAir tempDewpointWater temp
2016-Aug-23 06:32N 36°26' W 002°35'2222.2
2016-Aug-23 05:33N 36°48' W 002°28'3 2.5
2016-Aug-23 04:33N 36°50' W 002°28'1111.5
2016-Aug-23 03:33N 36°39' W 002°31'2221.4
2016-Aug-23 02:33N 36°18' W 002°37'4320.4
2016-Aug-23 00:27N 35°36' W 002°49'  
2016-Aug-19 16:33N 35°16' W 002°56'0 0.0
2016-Aug-19 15:33N 35°16' W 002°56'1 1.1
2016-Aug-19 14:34N 35°17' W 002°56'2 2.0
2016-Aug-19 13:34N 35°19' W 002°55'39 3.7
2016-Aug-19 03:12N 35°56' W 003°08'1721.6
2016-Aug-19 02:26N 35°41' W 003°01'10 2.4
2016-Aug-18 22:24N 35°38' W 002°49'1922.7
2016-Aug-18 21:33N 35°56' W 002°44'2322.2
2016-Aug-18 20:30N 36°19' W 002°37'2121.8
2016-Aug-18 19:33N 36°39' W 002°31'1111.1
2016-Aug-18 18:33N 36°50' W 002°28'5 4.9
2016-Aug-18 17:34N 36°45' W 002°29'2322.6
2016-Aug-18 16:33N 36°23' W 002°36'2221.9
2016-Aug-18 15:33N 36°02' W 002°42'2121.2
2016-Aug-18 14:34N 35°41' W 002°48'2221.8
2016-Aug-18 13:33N 35°20' W 002°54'22 4.2
2016-Aug-18 08:20N 35°41' W 002°48'1822.6
2016-Aug-18 07:34N 35°58' W 002°43'2222.1
2016-Aug-18 06:34N 36°20' W 002°36'2221.8
2016-Aug-18 05:34N 36°41' W 002°30'9 9.1
2016-Aug-18 04:34N 36°50' W 002°28'1010.3
2016-Aug-18 03:33N 36°40' W 002°30'4522.2
2016-Aug-18 01:33N 35°57' W 002°43'2221.7
2016-Aug-18 00:33N 35°35' W 002°49'6 1.2
2016-Aug-17 19:33N 35°41' W 002°48'2222.2
2016-Aug-17 18:34N 36°03' W 002°42'2221.7
2016-Aug-17 17:33N 36°24' W 002°35'2120.7
2016-Aug-17 16:34N 36°44' W 002°29'6 5.9
2016-Aug-17 15:33N 36°50' W 002°28'0 0.0
2016-Aug-17 14:33N 36°50' W 002°28'0 0.0
2016-Aug-17 13:33N 36°50' W 002°28'0 0.1
2016-Aug-17 12:34N 36°50' W 002°28'1616.1
2016-Aug-17 11:34N 36°38' W 002°42'36 4.3
2016-Aug-17 03:19N 36°18' W 003°18'1620.7
2016-Aug-17 02:34N 36°03' W 003°11'2120.9
2016-Aug-17 01:33N 35°44' W 003°02'2812.7
2016-Aug-16 23:23N 35°16' W 002°56'10 5.4
2016-Aug-16 21:33N 35°26' W 002°53'2222.4
2016-Aug-16 20:33N 35°48' W 002°46'2222.3
2016-Aug-16 19:33N 36°09' W 002°40'2221.9
2016-Aug-16 18:33N 36°31' W 002°33'2019.7
2016-Aug-16 17:33N 36°50' W 002°28'0 0.2
2016-Aug-16 16:33N 36°50' W 002°28'1717.0
2016-Aug-16 15:33N 36°34' W 002°32'7915.9
2016-Aug-16 10:33N 35°16' W 002°56'4117.2
2016-Aug-16 08:11N 35°56' W 002°44'5515.3
2016-Aug-16 04:33N 36°50' W 002°28'1413.6
2016-Aug-16 03:33N 36°37' W 002°32'5321.6
2016-Aug-16 01:07N 35°46' W 002°47'  
Track history (hours):
 
Tides and Currents Weather Stations Pressure Air Temp Water Temp Dewpoint Dewpoint Depression Visibility Wind Speed Wind Dir Waves Ship Positions

Volcan De Tamasite

Last reported at 2016-Aug-23 06:32 UTC. Time now 2016-Aug-25 09:43 UTC.
Position N 36°26' W 002°35'.

Length 142 m; draft 5.3 m.

Type: Passenger vessel. MMSI: 224093000.

Date/timePositionNaut miles runAvg speedWind from/ knotsBaromVisibWave heightAir tempDewpointWater temp
2016-Aug-23 06:32N 36°26' W 002°35'2222.2
2016-Aug-23 05:33N 36°48' W 002°28'3 2.5
2016-Aug-23 04:33N 36°50' W 002°28'1111.5
2016-Aug-23 03:33N 36°39' W 002°31'2221.4
2016-Aug-23 02:33N 36°18' W 002°37'4320.4
2016-Aug-23 00:27N 35°36' W 002°49'  
2016-Aug-19 16:33N 35°16' W 002°56'0 0.0
2016-Aug-19 15:33N 35°16' W 002°56'1 1.1
2016-Aug-19 14:34N 35°17' W 002°56'2 2.0
2016-Aug-19 13:34N 35°19' W 002°55'39 3.7
2016-Aug-19 03:12N 35°56' W 003°08'1721.6
2016-Aug-19 02:26N 35°41' W 003°01'10 2.4
2016-Aug-18 22:24N 35°38' W 002°49'1922.7
2016-Aug-18 21:33N 35°56' W 002°44'2322.2
2016-Aug-18 20:30N 36°19' W 002°37'2121.8
2016-Aug-18 19:33N 36°39' W 002°31'1111.1
2016-Aug-18 18:33N 36°50' W 002°28'5 4.9
2016-Aug-18 17:34N 36°45' W 002°29'2322.6
2016-Aug-18 16:33N 36°23' W 002°36'2221.9
2016-Aug-18 15:33N 36°02' W 002°42'2121.2
2016-Aug-18 14:34N 35°41' W 002°48'2221.8
2016-Aug-18 13:33N 35°20' W 002°54'22 4.2
2016-Aug-18 08:20N 35°41' W 002°48'1822.6
2016-Aug-18 07:34N 35°58' W 002°43'2222.1
2016-Aug-18 06:34N 36°20' W 002°36'2221.8
2016-Aug-18 05:34N 36°41' W 002°30'9 9.1
2016-Aug-18 04:34N 36°50' W 002°28'1010.3
2016-Aug-18 03:33N 36°40' W 002°30'4522.2
2016-Aug-18 01:33N 35°57' W 002°43'2221.7
2016-Aug-18 00:33N 35°35' W 002°49'6 1.2
2016-Aug-17 19:33N 35°41' W 002°48'2222.2
2016-Aug-17 18:34N 36°03' W 002°42'2221.7
2016-Aug-17 17:33N 36°24' W 002°35'2120.7
2016-Aug-17 16:34N 36°44' W 002°29'6 5.9
2016-Aug-17 15:33N 36°50' W 002°28'0 0.0
2016-Aug-17 14:33N 36°50' W 002°28'0 0.0
2016-Aug-17 13:33N 36°50' W 002°28'0 0.1
2016-Aug-17 12:34N 36°50' W 002°28'1616.1
2016-Aug-17 11:34N 36°38' W 002°42'36 4.3
2016-Aug-17 03:19N 36°18' W 003°18'1620.7
2016-Aug-17 02:34N 36°03' W 003°11'2120.9
2016-Aug-17 01:33N 35°44' W 003°02'2812.7
2016-Aug-16 23:23N 35°16' W 002°56'10 5.4
2016-Aug-16 21:33N 35°26' W 002°53'2222.4
2016-Aug-16 20:33N 35°48' W 002°46'2222.3
2016-Aug-16 19:33N 36°09' W 002°40'2221.9
2016-Aug-16 18:33N 36°31' W 002°33'2019.7
2016-Aug-16 17:33N 36°50' W 002°28'0 0.2
2016-Aug-16 16:33N 36°50' W 002°28'1717.0
2016-Aug-16 15:33N 36°34' W 002°32'7915.9
2016-Aug-16 10:33N 35°16' W 002°56'4117.2
2016-Aug-16 08:11N 35°56' W 002°44'5515.3
2016-Aug-16 04:33N 36°50' W 002°28'1413.6
2016-Aug-16 03:33N 36°37' W 002°32'5321.6
2016-Aug-16 01:07N 35°46' W 002°47'  

Dump ship's entire track history